Verdon, Minnesota
Current Conditions -  °F | °C
As of 8:53 PM on Tuesday 21 Oct 2014 (Local Time) from KAIT Reporting Station
Clear Clear  
Wind Chill: 45°   Ceiling: Unl
Heat Index: 48°   Visibility: 10mi
Dew Point: 37°   Wind: 8mph
Humidity: 66%   Direction: 130°SE
Pressure: 30.13"   Gusts: NA
Location:  46.7281°N, 93.6101°W
Report Text: KAIT 220153Z AUTO 13007KT 10SM CLR 09/03 A3013 RMK AO2
Loading
Personal Weather Stations






























Interactive Weather Map New forecast layout! Learn more

10-Day Weather Forecast

Advertisements
Track Severe Weather on mobile